Time;durP1;ratioP1;P1;durP2;ratioP2;P2;SDS_P1;SDS_P2;PMS_P1;PMS_P2;Temp;Humidity;BMP_temperature;BMP_pressure;BME280_temperature;BME280_humidity;BME280_pressure;Samples;Min_cycle;Max_cycle;Signal;HPM_P1;HPM_P2
2022/03/23 00:01:38;;;;;;;16.98;12.10;;;;;;;6.67;69.13;99363.13;4169601;28;20648;-84
2022/03/23 00:03:41;;;;;;;14.93;10.85;;;;;;;6.67;68.68;99369.16;4174202;28;20208;-84
2022/03/23 00:05:46;;;;;;;16.60;13.10;;;;;;;6.66;68.88;99370.09;4191668;28;20262;-84
2022/03/23 00:07:49;;;;;;;15.30;11.00;;;;;;;6.68;68.43;99372.63;4172082;28;20620;-84
2022/03/23 00:09:52;;;;;;;16.52;11.90;;;;;;;6.64;68.15;99376.19;4165185;28;20700;-83
2022/03/23 00:12:02;;;;;;;17.52;12.25;;;;;;;6.56;68.95;99368.66;4187889;28;20205;-84
2022/03/23 00:14:06;;;;;;;16.02;11.07;;;;;;;6.52;69.12;99371.41;4171950;28;20202;-83
2022/03/23 00:16:11;;;;;;;14.43;10.70;;;;;;;6.42;68.96;99374.34;4171982;28;20252;-83
2022/03/23 00:18:15;;;;;;;14.07;11.05;;;;;;;6.40;69.10;99376.97;4184935;28;20207;-84
2022/03/23 00:20:18;;;;;;;16.88;11.90;;;;;;;6.33;68.69;99367.72;4177198;28;20572;-84
2022/03/23 00:22:27;;;;;;;17.48;12.07;;;;;;;6.29;69.82;99360.09;4190679;28;20624;-83
2022/03/23 00:24:32;;;;;;;16.75;13.02;;;;;;;6.27;70.12;99365.31;4185364;28;20210;-83
2022/03/23 00:26:35;;;;;;;17.23;12.30;;;;;;;6.26;69.73;99368.78;4172438;28;20199;-84
2022/03/23 00:28:38;;;;;;;17.95;13.40;;;;;;;6.24;69.82;99367.13;4191362;28;20537;-84
2022/03/23 00:30:41;;;;;;;20.00;12.05;;;;;;;6.21;70.37;99365.50;4185721;28;20566;-84
2022/03/23 00:33:08;;;;;;;15.85;11.85;;;;;;;6.16;69.72;99357.03;4166933;28;20273;-84
2022/03/23 00:35:15;;;;;;;15.98;11.85;;;;;;;6.10;70.19;99362.41;4165392;28;20697;-84
2022/03/23 00:37:18;;;;;;;13.18;10.60;;;;;;;6.05;70.29;99355.66;4188061;28;20191;-84
2022/03/23 00:39:25;;;;;;;15.80;11.45;;;;;;;5.99;70.21;99355.00;4189541;28;20237;-83
2022/03/23 00:41:31;;;;;;;16.98;11.00;;;;;;;5.96;70.13;99358.53;4166585;28;20230;-84
2022/03/23 00:43:36;;;;;;;16.48;10.45;;;;;;;5.95;69.81;99363.75;4189773;28;20223;-84
2022/03/23 00:45:40;;;;;;;13.60;10.43;;;;;;;5.93;70.08;99362.94;4173881;28;20653;-84
2022/03/23 00:47:48;;;;;;;14.68;10.40;;;;;;;5.89;70.68;99356.16;4173593;28;20728;-84
2022/03/23 00:49:51;;;;;;;13.65;10.88;;;;;;;5.86;70.91;99354.50;4175878;28;20202;-83
2022/03/23 00:51:56;;;;;;;15.40;11.32;;;;;;;5.81;70.09;99355.53;4175674;28;20225;-84
2022/03/23 00:53:59;;;;;;;13.02;10.23;;;;;;;5.79;70.75;99359.94;4176041;28;20250;-83
2022/03/23 00:56:03;;;;;;;14.85;10.23;;;;;;;5.75;70.43;99353.97;4172976;28;20204;-83
2022/03/23 00:58:10;;;;;;;15.02;10.65;;;;;;;5.72;71.22;99359.19;4166997;28;20309;-84
2022/03/23 01:00:17;;;;;;;15.10;10.80;;;;;;;5.69;71.25;99353.28;4189528;28;20292;-84
2022/03/23 01:02:20;;;;;;;14.45;10.77;;;;;;;5.66;71.45;99353.38;4188913;28;20292;-84
2022/03/23 01:04:24;;;;;;;12.98;9.73;;;;;;;5.65;71.78;99349.06;4191018;28;20238;-83
2022/03/23 01:06:27;;;;;;;13.85;10.13;;;;;;;5.61;71.13;99348.31;4186603;28;20214;-84
2022/03/23 01:08:31;;;;;;;14.85;11.00;;;;;;;5.60;71.21;99344.03;4175511;28;20290;-84
2022/03/23 01:10:34;;;;;;;15.07;10.70;;;;;;;5.59;71.29;99345.81;4172420;28;20206;-84
2022/03/23 01:12:39;;;;;;;14.32;10.73;;;;;;;5.56;70.91;99349.34;4176315;28;20207;-84
2022/03/23 01:14:42;;;;;;;12.75;10.27;;;;;;;5.54;71.12;99345.94;4183956;28;20241;-83
2022/03/23 01:16:46;;;;;;;16.00;10.00;;;;;;;5.52;70.95;99344.28;4171471;28;20211;-83
2022/03/23 01:18:53;;;;;;;14.93;10.82;;;;;;;5.51;71.25;99347.78;4172896;28;20245;-84
2022/03/23 01:20:56;;;;;;;15.93;11.18;;;;;;;5.51;71.03;99346.03;4174341;28;20641;-84
2022/03/23 01:22:59;;;;;;;13.98;10.30;;;;;;;5.50;71.21;99349.50;4179821;28;20206;-84
2022/03/23 01:25:03;;;;;;;15.77;11.55;;;;;;;5.52;71.24;99344.28;4177413;28;20206;-84
2022/03/23 01:27:06;;;;;;;12.68;10.07;;;;;;;5.53;70.58;99346.84;4176281;28;20210;-83
2022/03/23 01:29:11;;;;;;;14.38;11.02;;;;;;;5.51;70.99;99342.63;4185611;28;20646;-84
2022/03/23 01:31:15;;;;;;;13.95;10.13;;;;;;;5.48;70.96;99337.53;4207637;28;20223;-84
2022/03/23 01:33:18;;;;;;;13.77;10.15;;;;;;;5.46;71.21;99344.47;4177279;28;20219;-83
2022/03/23 01:35:22;;;;;;;14.50;10.23;;;;;;;5.47;70.96;99347.00;4177849;28;20287;-83
2022/03/23 01:37:25;;;;;;;16.05;10.27;;;;;;;5.48;70.96;99333.19;4172745;28;20218;-83
2022/03/23 01:39:28;;;;;;;13.50;9.93;;;;;;;5.48;70.71;99337.53;4178245;28;20210;-84
2022/03/23 01:41:35;;;;;;;14.20;9.90;;;;;;;5.44;70.45;99341.94;4176794;28;20919;-83
2022/03/23 01:43:39;;;;;;;13.55;10.10;;;;;;;5.39;71.69;99338.63;4172756;28;20208;-84
2022/03/23 01:45:44;;;;;;;12.20;10.50;;;;;;;5.36;70.94;99340.47;4190819;28;20705;-83
2022/03/23 01:47:47;;;;;;;12.63;10.52;;;;;;;5.32;70.86;99339.69;4191135;28;20685;-83
2022/03/23 01:49:52;;;;;;;14.30;10.48;;;;;;;5.23;70.28;99339.09;4207220;28;20246;-83
2022/03/23 01:51:55;;;;;;;13.75;10.55;;;;;;;5.18;70.90;99346.13;4176663;28;20237;-83
2022/03/23 01:54:02;;;;;;;13.57;10.00;;;;;;;5.13;71.37;99337.66;4175178;28;20305;-83
2022/03/23 01:56:06;;;;;;;13.98;10.63;;;;;;;5.16;71.27;99341.00;4177724;28;20213;-83
2022/03/23 01:58:10;;;;;;;14.63;10.77;;;;;;;5.13;71.40;99339.38;4175341;28;20206;-84
2022/03/23 02:00:15;;;;;;;14.07;10.68;;;;;;;5.11;70.51;99344.59;4192318;28;20205;-83
2022/03/23 02:02:26;;;;;;;13.40;10.18;;;;;;;5.09;71.72;99340.38;4173828;28;20257;-84
2022/03/23 02:04:32;;;;;;;13.63;9.95;;;;;;;5.10;70.87;99342.03;4172884;28;20727;-84
2022/03/23 02:06:35;;;;;;;14.35;11.10;;;;;;;5.05;71.91;99342.19;4191165;28;20300;-83
2022/03/23 02:08:39;;;;;;;15.32;10.73;;;;;;;5.03;71.19;99345.69;4189758;28;20237;-83
2022/03/23 02:10:44;;;;;;;18.02;11.13;;;;;;;5.05;71.67;99346.50;4173079;28;20211;-84
2022/03/23 02:12:49;;;;;;;13.85;10.40;;;;;;;5.04;71.15;99342.22;4176146;28;20680;-84
2022/03/23 02:14:53;;;;;;;13.38;10.30;;;;;;;5.02;71.92;99350.03;4192777;28;20212;-83
2022/03/23 02:16:56;;;;;;;15.48;10.75;;;;;;;4.99;71.53;99344.06;4176904;28;20225;-84
2022/03/23 02:19:00;;;;;;;19.17;10.93;;;;;;;5.02;72.25;99350.03;4194095;28;20190;-84
2022/03/23 02:21:03;;;;;;;14.55;10.57;;;;;;;4.99;71.90;99344.06;4193353;28;20589;-84
2022/03/23 02:23:11;;;;;;;13.35;9.98;;;;;;;5.02;71.68;99349.16;4175397;28;20217;-83
2022/03/23 02:25:15;;;;;;;15.65;10.63;;;;;;;4.99;71.56;99346.66;4175360;28;20210;-83
2022/03/23 02:27:18;;;;;;;14.48;11.23;;;;;;;4.95;71.47;99352.81;4176790;28;20209;-83
2022/03/23 02:29:25;;;;;;;14.25;10.23;;;;;;;4.93;71.93;99347.69;4189209;28;20655;-83
2022/03/23 02:31:29;;;;;;;16.65;11.38;;;;;;;4.94;72.68;99353.69;4192281;28;20197;-83
2022/03/23 02:33:32;;;;;;;15.20;10.60;;;;;;;4.90;71.81;99346.88;4177423;28;20739;-84
2022/03/23 02:35:35;;;;;;;15.10;11.65;;;;;;;4.94;71.77;99351.09;4195145;28;20235;-83
2022/03/23 02:37:39;;;;;;;15.48;10.82;;;;;;;4.88;72.88;99353.84;4174109;28;20318;-84
2022/03/23 02:39:43;;;;;;;16.90;11.35;;;;;;;4.86;71.59;99350.47;4189118;28;20203;-84
2022/03/23 02:41:47;;;;;;;14.70;10.77;;;;;;;4.84;72.85;99352.22;4192844;28;20210;-83
2022/03/23 02:43:50;;;;;;;16.40;11.48;;;;;;;4.80;71.96;99351.44;4187681;28;20210;-83
2022/03/23 02:45:55;;;;;;;14.40;10.85;;;;;;;4.78;72.51;99357.53;4175962;28;20251;-83
2022/03/23 02:47:59;;;;;;;14.50;10.90;;;;;;;4.76;72.74;99355.00;4206492;28;20197;-83
2022/03/23 02:50:02;;;;;;;17.15;11.57;;;;;;;4.74;72.41;99350.78;4193629;28;20233;-84
2022/03/23 02:52:06;;;;;;;13.63;10.48;;;;;;;4.71;72.44;99362.00;4171084;28;20206;-84
2022/03/23 03:03:51;;;;;;;14.93;10.93;;;;;;;4.48;73.39;99362.63;4188854;28;20657;-83
2022/03/23 03:05:54;;;;;;;16.98;11.70;;;;;;;4.44;73.37;99371.34;4191623;28;20256;-83
2022/03/23 03:10:18;;;;;;;14.25;10.85;;;;;;;4.40;73.67;99375.69;4173558;28;20206;-83
2022/03/23 03:12:22;;;;;;;15.13;10.88;;;;;;;4.37;73.86;99380.94;4175686;28;20201;-83
2022/03/23 03:14:25;;;;;;;14.75;11.30;;;;;;;4.34;73.50;99372.44;4176266;28;20518;-83
2022/03/23 03:16:30;;;;;;;16.20;11.30;;;;;;;4.39;73.10;99376.59;4177186;28;20210;-83
2022/03/23 03:18:34;;;;;;;15.85;10.88;;;;;;;4.35;73.84;99369.81;4177845;28;20202;-83
2022/03/23 03:20:38;;;;;;;15.85;11.52;;;;;;;4.32;73.73;99376.78;4174483;28;20198;-83
2022/03/23 03:22:45;;;;;;;16.90;10.60;;;;;;;4.26;73.42;99377.75;4174545;28;20254;-84
2022/03/23 03:24:50;;;;;;;13.00;10.50;;;;;;;4.22;73.82;99377.88;4191362;28;20213;-83
2022/03/23 03:26:55;;;;;;;19.75;11.25;;;;;;;4.19;74.14;99383.09;4175832;28;20198;-83
2022/03/23 03:29:00;;;;;;;17.20;11.45;;;;;;;4.20;74.03;99380.47;4173383;28;20267;-83
2022/03/23 03:31:03;;;;;;;14.70;10.93;;;;;;;4.19;73.54;99384.84;4174327;28;20206;-83
2022/03/23 03:36:38;;;;;;;15.93;10.68;;;;;;;4.10;74.05;99383.31;4173465;28;20214;-83
2022/03/23 03:38:43;;;;;;;14.80;11.10;;;;;;;4.09;74.29;99385.91;4187381;28;20650;-83
2022/03/23 03:40:50;;;;;;;18.58;11.18;;;;;;;4.09;74.23;99391.06;4175830;28;20206;-83
2022/03/23 03:42:53;;;;;;;15.20;11.20;;;;;;;4.06;74.30;99388.56;4191953;28;20549;-83
2022/03/23 03:44:57;;;;;;;16.52;11.85;;;;;;;4.02;74.23;99382.63;4190160;28;20201;-83
2022/03/23 03:47:00;;;;;;;16.17;11.00;;;;;;;3.99;74.69;99382.69;4170944;28;20728;-83
2022/03/23 03:49:08;;;;;;;17.33;12.32;;;;;;;3.98;74.46;99390.47;4190417;28;20212;-84
2022/03/23 03:51:11;;;;;;;17.13;11.65;;;;;;;3.97;74.81;99383.59;4192972;28;20213;-83
2022/03/23 03:53:15;;;;;;;15.20;11.57;;;;;;;3.95;74.69;99387.97;4190524;28;20602;-83
2022/03/23 03:55:18;;;;;;;18.05;12.35;;;;;;;3.93;74.70;99387.16;4205607;28;20213;-84
2022/03/23 03:57:21;;;;;;;15.85;12.18;;;;;;;3.91;74.67;99389.75;4207110;28;20260;-83
2022/03/23 03:59:26;;;;;;;15.98;11.55;;;;;;;3.92;74.94;99388.03;4191415;28;20541;-84
2022/03/23 04:01:30;;;;;;;17.65;11.68;;;;;;;3.91;74.95;99389.75;4204568;28;20203;-83
2022/03/23 04:03:34;;;;;;;16.73;12.32;;;;;;;3.93;74.28;99398.31;4175746;28;20223;-83
2022/03/23 04:05:37;;;;;;;17.42;12.05;;;;;;;3.91;74.94;99394.91;4189014;28;20211;-83
2022/03/23 04:07:40;;;;;;;16.25;11.85;;;;;;;3.89;74.26;99396.69;4175060;28;20257;-84
2022/03/23 04:09:43;;;;;;;18.75;12.25;;;;;;;3.87;75.07;99384.69;4193184;28;20255;-83
2022/03/23 04:11:46;;;;;;;13.48;11.00;;;;;;;3.85;74.31;99394.22;4187369;28;20276;-83
2022/03/23 04:13:51;;;;;;;18.17;11.95;;;;;;;3.83;74.73;99385.63;4169996;28;20198;-83
2022/03/23 04:15:54;;;;;;;15.23;11.02;;;;;;;3.80;74.64;99390.84;4190754;28;20215;-84
2022/03/23 04:17:59;;;;;;;19.40;11.60;;;;;;;3.80;74.98;99388.28;4175605;28;20723;-84
2022/03/23 04:20:02;;;;;;;16.73;12.05;;;;;;;3.77;74.97;99385.75;4178403;28;20210;-83
2022/03/23 04:22:08;;;;;;;16.85;11.93;;;;;;;3.77;74.70;99384.06;4191814;28;20270;-83
2022/03/23 04:24:14;;;;;;;16.80;11.27;;;;;;;3.74;75.23;99381.53;4175588;28;20224;-84
2022/03/23 04:26:17;;;;;;;17.52;12.07;;;;;;;3.71;74.84;99385.88;4188833;28;20221;-83
2022/03/23 04:28:21;;;;;;;18.08;11.68;;;;;;;3.72;75.12;99387.59;4191802;28;20683;-83
2022/03/23 04:30:30;;;;;;;16.80;11.75;;;;;;;3.70;75.37;99394.53;4187393;28;20204;-83
2022/03/23 04:32:33;;;;;;;18.15;10.93;;;;;;;3.68;74.86;99385.94;4172703;28;20202;-83
2022/03/23 04:34:37;;;;;;;16.33;11.73;;;;;;;3.67;75.21;99397.16;4189875;28;20210;-83
2022/03/23 04:36:42;;;;;;;16.10;11.05;;;;;;;3.68;74.83;99396.25;4193282;28;20213;-83
2022/03/23 04:38:47;;;;;;;16.20;11.75;;;;;;;3.69;75.16;99387.66;4169555;28;20610;-83
2022/03/23 04:40:50;;;;;;;14.93;11.27;;;;;;;3.70;74.92;99394.53;4187083;28;20703;-83
2022/03/23 04:42:53;;;;;;;18.92;11.80;;;;;;;3.69;75.19;99395.41;4192310;28;20215;-83
2022/03/23 04:44:58;;;;;;;16.05;11.40;;;;;;;3.68;75.15;99392.84;4167530;28;20297;-83
2022/03/23 04:47:02;;;;;;;16.83;11.80;;;;;;;3.63;75.20;99390.38;4187403;28;20211;-83
2022/03/23 04:49:05;;;;;;;14.80;11.32;;;;;;;3.60;75.05;99392.16;4192691;28;20297;-83
2022/03/23 04:51:09;;;;;;;15.63;11.57;;;;;;;3.59;75.49;99393.88;4172951;28;20204;-83
2022/03/23 04:53:16;;;;;;;16.52;11.25;;;;;;;3.58;75.12;99397.34;4170948;28;20201;-83
2022/03/23 04:55:20;;;;;;;19.48;11.23;;;;;;;3.57;75.18;99403.38;4169728;28;20205;-83
2022/03/23 04:57:25;;;;;;;16.15;11.60;;;;;;;3.55;75.77;99400.00;4172869;28;20250;-83
2022/03/23 04:59:28;;;;;;;18.67;12.10;;;;;;;3.54;75.75;99397.44;4165383;28;20212;-83
2022/03/23 05:01:31;;;;;;;16.45;11.70;;;;;;;3.54;75.36;99406.00;4171689;28;20208;-83
2022/03/23 05:03:34;;;;;;;15.68;11.82;;;;;;;3.52;75.63;99400.06;4173682;28;20215;-84
2022/03/23 05:05:37;;;;;;;17.85;12.80;;;;;;;3.48;75.72;99408.72;4173422;28;20211;-84
2022/03/23 05:07:43;;;;;;;16.30;12.20;;;;;;;3.47;75.99;99407.03;4173521;28;20690;-83
2022/03/23 05:09:46;;;;;;;16.75;11.88;;;;;;;3.46;75.82;99405.31;4174262;28;20213;-83
2022/03/23 05:11:49;;;;;;;16.27;12.30;;;;;;;3.45;75.75;99401.03;4173070;28;20258;-83
2022/03/23 05:13:52;;;;;;;15.55;11.05;;;;;;;3.45;75.99;99403.63;4173193;28;20348;-83
2022/03/23 05:15:55;;;;;;;24.83;13.30;;;;;;;3.44;75.87;99404.50;4193996;28;20204;-83
2022/03/23 05:17:58;;;;;;;17.25;12.15;;;;;;;3.45;75.45;99406.19;4188346;28;20208;-83
2022/03/23 05:20:02;;;;;;;19.33;12.38;;;;;;;3.42;75.91;99408.84;4190474;28;20270;-83
2022/03/23 05:22:05;;;;;;;17.70;12.90;;;;;;;3.39;75.96;99402.91;4186116;28;20230;-83
2022/03/23 05:24:10;;;;;;;19.48;14.30;;;;;;;3.39;76.10;99408.06;4175980;28;20280;-83
2022/03/23 05:26:13;;;;;;;17.70;11.98;;;;;;;3.35;75.83;99407.25;4171017;28;20204;-83
2022/03/23 05:28:16;;;;;;;15.88;12.10;;;;;;;3.37;75.85;99407.25;4169279;28;20210;-84
2022/03/23 05:30:22;;;;;;;19.65;13.27;;;;;;;3.38;76.03;99416.66;4188999;28;20202;-83
2022/03/23 05:32:25;;;;;;;19.10;13.13;;;;;;;3.38;75.52;99408.91;4173854;28;20215;-83
2022/03/23 05:34:28;;;;;;;17.00;12.68;;;;;;;3.39;76.06;99411.47;4187274;28;20266;-84
2022/03/23 05:36:31;;;;;;;17.23;12.15;;;;;;;3.42;75.98;99408.00;4174939;28;20274;-83
2022/03/23 05:38:35;;;;;;;17.85;13.15;;;;;;;3.43;76.10;99410.53;4183755;28;20202;-83
2022/03/23 05:40:40;;;;;;;19.30;12.50;;;;;;;3.56;76.35;99406.81;4190416;28;20794;-83
2022/03/23 05:42:43;;;;;;;20.23;12.85;;;;;;;3.73;75.31;99412.53;4189490;28;20280;-84
2022/03/23 05:44:46;;;;;;;17.60;12.10;;;;;;;3.88;75.25;99412.22;4184151;28;20214;-83
2022/03/23 05:46:49;;;;;;;17.10;12.50;;;;;;;4.02;75.18;99415.34;4169798;28;20207;-83
2022/03/23 05:48:54;;;;;;;17.05;12.10;;;;;;;4.17;74.77;99420.16;4185310;28;20694;-84
2022/03/23 05:50:59;;;;;;;16.58;12.80;;;;;;;4.30;73.72;99410.38;4168334;28;20196;-85
2022/03/23 05:53:03;;;;;;;19.38;13.10;;;;;;;4.42;73.49;99420.44;4179876;28;20212;-84
2022/03/23 05:55:10;;;;;;;18.20;13.18;;;;;;;4.54;72.83;99427.91;4189220;28;20641;-84
2022/03/23 05:57:14;;;;;;;14.25;11.30;;;;;;;4.66;73.14;99427.63;4186545;28;20591;-84
2022/03/23 05:59:17;;;;;;;22.85;13.10;;;;;;;4.79;73.76;99435.00;4187113;28;20197;-84
2022/03/23 06:01:21;;;;;;;17.73;12.40;;;;;;;4.93;71.70;99434.69;4183815;28;20212;-84
2022/03/23 06:03:27;;;;;;;17.95;12.73;;;;;;;5.06;71.42;99423.16;4165990;28;20245;-84
2022/03/23 06:05:30;;;;;;;17.50;12.10;;;;;;;5.18;72.24;99432.28;4169250;28;20278;-84
2022/03/23 06:07:37;;;;;;;15.88;12.27;;;;;;;5.33;71.90;99431.06;4169441;28;20570;-84
2022/03/23 06:09:40;;;;;;;16.08;12.48;;;;;;;5.44;70.44;99435.06;4168972;28;20254;-83
2022/03/23 06:11:43;;;;;;;18.05;12.73;;;;;;;5.56;70.63;99428.69;4189840;28;20300;-84
2022/03/23 06:13:48;;;;;;;18.88;12.50;;;;;;;5.68;70.99;99434.38;4194847;28;20247;-85
2022/03/23 06:15:51;;;;;;;17.30;12.73;;;;;;;5.82;70.32;99437.47;4167580;28;20210;-84
2022/03/23 06:17:55;;;;;;;16.65;12.82;;;;;;;5.96;70.21;99441.34;4189980;28;20652;-83
2022/03/23 06:20:04;;;;;;;18.05;13.55;;;;;;;6.10;70.01;99440.09;4191352;28;20251;-85
2022/03/23 06:22:09;;;;;;;16.20;12.45;;;;;;;6.28;68.62;99444.69;4185414;28;20229;-84
2022/03/23 06:24:18;;;;;;;17.25;12.27;;;;;;;6.47;69.24;99445.84;4174816;28;20521;-84
2022/03/23 06:26:21;;;;;;;17.17;12.32;;;;;;;6.61;68.21;99449.72;4190363;28;20603;-85
2022/03/23 06:28:24;;;;;;;15.63;12.30;;;;;;;6.78;67.78;99449.16;4187170;28;20221;-85
2022/03/23 06:30:30;;;;;;;17.70;13.35;;;;;;;6.90;66.99;99449.66;4174279;28;20582;-85
2022/03/23 06:32:33;;;;;;;18.80;12.57;;;;;;;7.02;67.11;99451.81;4170105;28;20244;-84
2022/03/23 06:34:36;;;;;;;17.23;13.00;;;;;;;7.12;67.46;99453.22;4190703;28;20217;-84
2022/03/23 06:36:42;;;;;;;19.05;12.38;;;;;;;7.24;67.32;99458.00;4202777;28;20702;-85
2022/03/23 06:38:46;;;;;;;16.08;12.93;;;;;;;7.35;67.10;99459.38;4182719;28;20292;-86
2022/03/23 06:40:49;;;;;;;18.45;13.60;;;;;;;7.49;66.74;99470.13;4182345;28;20213;-86
2022/03/23 06:42:53;;;;;;;17.02;12.75;;;;;;;7.58;66.60;99469.81;4179456;28;20244;-86
2022/03/23 06:44:56;;;;;;;20.98;13.20;;;;;;;7.71;65.19;99476.25;4193859;28;20639;-86
2022/03/23 06:47:01;;;;;;;15.55;13.20;;;;;;;7.85;66.41;99476.59;4176751;28;20320;-85
2022/03/23 06:49:05;;;;;;;16.85;13.05;;;;;;;7.96;65.70;99478.78;4170523;28;20234;-86
2022/03/23 06:51:08;;;;;;;16.83;12.68;;;;;;;8.10;65.31;99481.75;4177225;28;20260;-86
2022/03/23 06:53:11;;;;;;;16.30;12.00;;;;;;;8.23;63.06;99476.97;4171006;28;20578;-86
2022/03/23 06:55:15;;;;;;;17.63;12.80;;;;;;;8.39;64.35;99485.88;4193210;28;20312;-86
2022/03/23 06:57:18;;;;;;;15.10;12.55;;;;;;;8.56;64.28;99484.34;4189934;28;20261;-86
2022/03/23 06:59:21;;;;;;;18.50;13.25;;;;;;;8.72;65.06;99488.03;4191520;28;20206;-86
2022/03/23 07:01:24;;;;;;;17.15;13.13;;;;;;;8.88;64.78;99489.16;4194506;28;20234;-86
2022/03/23 07:03:29;;;;;;;17.98;13.85;;;;;;;8.99;63.88;99483.47;4179406;28;20242;-86
2022/03/23 07:05:34;;;;;;;18.65;12.98;;;;;;;9.15;63.88;99475.88;4179075;28;20266;-86
2022/03/23 07:07:37;;;;;;;15.35;13.40;;;;;;;9.28;62.79;99479.69;4183637;28;20640;-85
2022/03/23 07:09:41;;;;;;;19.73;15.02;;;;;;;9.43;62.52;99485.09;4187857;28;20214;-86
2022/03/23 07:11:44;;;;;;;16.92;13.85;;;;;;;9.57;62.82;99482.78;4193424;28;20243;-86
2022/03/23 07:13:47;;;;;;;17.67;12.67;;;;;;;9.76;64.40;99481.06;4190478;28;20205;-86
2022/03/23 07:15:51;;;;;;;16.40;13.03;;;;;;;9.92;62.89;99483.81;4181695;28;21231;-86
2022/03/23 07:18:00;;;;;;;16.00;12.70;;;;;;;10.05;62.26;99487.59;4175300;28;20642;-86
2022/03/23 07:20:05;;;;;;;20.23;13.27;;;;;;;10.22;61.88;99490.28;4192813;28;20624;-86
2022/03/23 07:22:09;;;;;;;18.87;14.43;;;;;;;10.35;61.14;99486.22;4178828;28;20230;-86
2022/03/23 07:24:12;;;;;;;15.00;12.87;;;;;;;10.55;61.10;99489.59;4177664;28;20630;-87
2022/03/23 07:26:16;;;;;;;15.23;12.80;;;;;;;10.74;60.19;99497.47;4176625;28;20647;-85
2022/03/23 07:28:19;;;;;;;20.03;13.90;;;;;;;10.86;59.57;99495.94;4178680;28;20727;-83
2022/03/23 07:30:23;;;;;;;17.80;12.00;;;;;;;10.97;60.13;99504.09;4179092;28;20629;-83
2022/03/23 07:32:26;;;;;;;16.30;13.10;;;;;;;11.07;60.89;99508.00;4176543;28;20712;-83
2022/03/23 07:34:31;;;;;;;15.50;12.80;;;;;;;11.22;58.81;99494.19;4188811;28;20702;-83
2022/03/23 07:36:39;;;;;;;14.27;11.93;;;;;;;11.37;59.51;99502.13;4152710;28;20731;-83
2022/03/23 07:38:42;;;;;;;16.63;12.50;;;;;;;11.53;58.90;99504.84;4120476;28;21243;-83
2022/03/23 07:40:45;;;;;;;15.30;12.20;;;;;;;11.64;56.54;99515.66;4137721;28;20636;-83
2022/03/23 07:42:48;;;;;;;15.07;12.43;;;;;;;11.73;57.20;99512.53;4134672;28;20627;-83
2022/03/23 07:44:54;;;;;;;14.27;11.47;;;;;;;11.84;56.52;99511.09;4143475;28;21301;-82
2022/03/23 07:46:57;;;;;;;13.23;11.20;;;;;;;11.93;56.01;99506.22;4140761;28;20664;-83
2022/03/23 07:49:01;;;;;;;12.27;10.80;;;;;;;12.06;55.41;99507.31;4142954;28;20626;-86
2022/03/23 07:51:04;;;;;;;11.83;10.63;;;;;;;12.19;53.35;99517.97;4137122;28;21069;-85
2022/03/23 07:53:09;;;;;;;12.47;11.00;;;;;;;12.33;55.28;99516.34;4144857;28;20629;-85
2022/03/23 07:55:12;;;;;;;14.33;11.97;;;;;;;12.55;54.79;99516.88;4126538;28;20643;-85
2022/03/23 07:57:15;;;;;;;17.40;11.30;;;;;;;12.74;54.03;99518.44;4128666;28;20631;-85
2022/03/23 07:59:19;;;;;;;18.20;13.87;;;;;;;12.92;55.16;99513.06;4143161;28;21186;-84
2022/03/23 08:01:24;;;;;;;17.67;13.57;;;;;;;13.06;55.56;99517.53;4123441;28;20642;-85
2022/03/23 08:03:29;;;;;;;18.23;15.10;;;;;;;13.25;54.15;99512.03;4138369;28;20646;-86
2022/03/23 08:05:32;;;;;;;20.20;14.67;;;;;;;13.37;57.07;99518.38;4133578;28;21301;-86
2022/03/23 08:07:35;;;;;;;20.70;15.03;;;;;;;13.57;57.24;99518.06;4134898;28;20635;-86
2022/03/23 08:09:40;;;;;;;16.80;14.60;;;;;;;13.68;55.01;99522.59;4135273;28;20636;-86
2022/03/23 08:11:43;;;;;;;18.63;14.87;;;;;;;13.83;57.05;99524.34;4133155;28;21006;-85
2022/03/23 08:13:46;;;;;;;16.67;13.53;;;;;;;14.03;56.73;99517.94;4121510;28;20644;-86
2022/03/23 08:15:49;;;;;;;17.90;14.70;;;;;;;14.18;56.24;99523.13;4135692;28;20989;-86
2022/03/23 08:17:52;;;;;;;19.17;15.10;;;;;;;14.34;55.49;99523.88;4139668;28;20646;-86
2022/03/23 08:22:16;;;;;;;17.30;14.43;;;;;;;14.65;52.74;99525.38;4136670;28;20670;-86
2022/03/23 08:24:20;;;;;;;17.00;14.27;;;;;;;14.75;54.58;99531.78;4138122;28;20632;-86
2022/03/23 08:26:24;;;;;;;18.67;14.53;;;;;;;14.83;52.84;99529.50;4133723;28;20672;-86
2022/03/23 08:28:27;;;;;;;17.47;15.37;;;;;;;14.93;52.63;99527.13;4144362;28;20707;-86
2022/03/23 08:30:31;;;;;;;20.80;14.60;;;;;;;15.01;52.92;99528.34;4126750;28;21355;-86
2022/03/23 08:32:34;;;;;;;18.47;14.90;;;;;;;15.17;54.72;99529.94;4139789;28;20648;-86
2022/03/23 08:34:37;;;;;;;17.43;14.90;;;;;;;15.26;52.83;99532.00;4122998;28;20753;-86
2022/03/23 08:36:40;;;;;;;19.17;16.07;;;;;;;15.43;54.72;99525.66;4125444;28;20623;-86
2022/03/23 08:38:46;;;;;;;20.20;16.07;;;;;;;15.60;54.46;99529.69;4118704;28;20684;-87
2022/03/23 08:40:49;;;;;;;20.60;16.20;;;;;;;15.74;52.60;99532.28;4154484;28;20727;-87
2022/03/23 08:42:57;;;;;;;18.70;15.43;;;;;;;15.81;50.17;99533.53;4158530;28;20631;-87
2022/03/23 08:45:00;;;;;;;19.03;16.30;;;;;;;15.79;53.77;99530.19;4123589;28;20642;-87
2022/03/23 08:47:03;;;;;;;18.13;15.10;;;;;;;15.97;52.40;99525.50;4137073;28;20657;-87
2022/03/23 08:49:07;;;;;;;17.43;15.43;;;;;;;16.08;50.79;99527.28;4136847;28;21235;-87
2022/03/23 08:51:11;;;;;;;17.67;15.00;;;;;;;16.20;53.33;99526.44;4138102;28;20649;-87
2022/03/23 08:53:14;;;;;;;17.43;14.97;;;;;;;16.26;50.71;99527.88;4138400;28;20664;-87
2022/03/23 08:55:19;;;;;;;17.87;15.10;;;;;;;16.34;52.73;99522.91;4138357;28;20661;-87
2022/03/23 08:57:23;;;;;;;17.47;14.13;;;;;;;16.41;53.03;99524.19;4120844;28;20631;-87
2022/03/23 08:59:27;;;;;;;18.30;15.70;;;;;;;16.55;53.42;99523.13;4139046;28;20638;-87
2022/03/23 09:01:30;;;;;;;19.70;15.23;;;;;;;16.64;51.35;99519.00;4121262;28;20676;-87
2022/03/23 09:03:34;;;;;;;18.00;15.93;;;;;;;16.71;52.64;99521.09;4142860;28;20634;-87
2022/03/23 09:05:37;;;;;;;20.90;15.73;;;;;;;16.85;50.89;99526.22;4123279;28;20632;-87
2022/03/23 09:07:41;;;;;;;16.60;14.83;;;;;;;16.95;53.42;99523.81;4154725;28;20741;-87
2022/03/23 09:09:44;;;;;;;17.70;15.80;;;;;;;17.03;54.07;99520.53;4139022;28;20696;-87
2022/03/23 09:11:47;;;;;;;23.83;15.60;;;;;;;17.05;54.15;99515.13;4138832;28;21216;-87
2022/03/23 09:13:50;;;;;;;18.80;16.50;;;;;;;17.12;52.57;99519.88;4139301;28;21111;-86
2022/03/23 09:15:55;;;;;;;19.03;16.07;;;;;;;17.24;50.73;99518.16;4119895;28;20639;-87
2022/03/23 09:17:59;;;;;;;20.80;16.60;;;;;;;17.35;52.86;99510.28;4134901;28;20762;-86
2022/03/23 09:20:04;;;;;;;25.60;17.80;;;;;;;17.41;51.09;99505.44;4124075;28;20640;-87
2022/03/23 09:22:07;;;;;;;22.47;18.00;;;;;;;17.47;50.56;99505.00;4122449;28;20759;-87
2022/03/23 09:24:11;;;;;;;20.20;17.70;;;;;;;17.58;50.77;99503.22;4123257;28;22680;-87
2022/03/23 09:26:14;;;;;;;18.90;16.93;;;;;;;17.66;52.04;99505.28;4124198;28;20762;-87
2022/03/23 09:28:17;;;;;;;21.57;17.33;;;;;;;17.66;48.58;99510.56;4139505;28;20634;-87
2022/03/23 09:30:21;;;;;;;24.90;18.13;;;;;;;17.71;51.90;99503.16;4133405;28;20677;-87
2022/03/23 09:32:25;;;;;;;20.30;17.30;;;;;;;17.71;48.64;99503.16;4140797;28;21208;-87
2022/03/23 09:34:28;;;;;;;20.10;17.90;;;;;;;17.70;51.17;99501.50;4139780;28;20681;-87
2022/03/23 09:38:53;;;;;;;17.80;15.63;;;;;;;17.83;45.98;99499.59;4157832;28;21294;-87
2022/03/23 09:40:56;;;;;;;19.67;16.03;;;;;;;17.82;47.18;99501.41;4138452;28;20670;-86
2022/03/23 09:43:00;;;;;;;19.30;17.00;;;;;;;17.90;47.88;99498.19;4133646;28;21005;-87
2022/03/23 09:45:04;;;;;;;18.23;14.90;;;;;;;18.00;45.62;99500.03;4124032;28;20631;-86
2022/03/23 09:47:08;;;;;;;17.33;13.73;;;;;;;18.10;46.22;99499.22;4141991;28;21510;-87
2022/03/23 09:49:14;;;;;;;16.23;14.40;;;;;;;18.14;45.67;99497.22;4142124;28;20639;-87
2022/03/23 09:51:18;;;;;;;18.07;16.17;;;;;;;18.15;44.03;99498.91;4124188;28;20639;-87
2022/03/23 09:53:23;;;;;;;20.63;16.73;;;;;;;18.23;46.62;99491.22;4125646;28;20630;-87
2022/03/23 09:55:26;;;;;;;21.63;16.87;;;;;;;18.30;47.23;99492.44;4141587;28;20689;-86
2022/03/23 09:57:30;;;;;;;19.07;16.00;;;;;;;18.37;47.16;99485.72;4124114;28;21221;-87